Time;durP1;ratioP1;P1;durP2;ratioP2;P2;SDS_P1;SDS_P2;PMS_P1;PMS_P2;Temp;Humidity;BMP_temperature;BMP_pressure;BME280_temperature;BME280_humidity;BME280_pressure;Samples;Min_cycle;Max_cycle;Signal;HPM_P1;HPM_P2
2022/04/17 00:00:29;;;;;;;2.10;1.35;;;20.30;54.30;;;;;;4982536;28;20268;-71
2022/04/17 00:02:56;;;;;;;1.60;1.50;;;20.30;54.30;;;;;;4960604;28;20356;-72
2022/04/17 00:05:22;;;;;;;1.67;1.58;;;20.30;54.30;;;;;;4975819;28;20217;-71
2022/04/17 00:07:48;;;;;;;1.65;1.55;;;20.30;54.20;;;;;;4960095;28;20190;-71
2022/04/17 00:10:14;;;;;;;1.63;1.33;;;20.30;54.20;;;;;;4976608;28;20264;-71
2022/04/17 00:12:41;;;;;;;1.35;1.25;;;20.20;54.20;;;;;;4960094;28;20208;-72
2022/04/17 00:15:09;;;;;;;1.23;1.20;;;20.20;54.20;;;;;;4978780;28;20653;-71
2022/04/17 00:17:42;;;;;;;2.78;1.52;;;20.20;54.10;;;;;;4978686;28;20181;-70
2022/04/17 00:20:14;;;;;;;2.40;1.70;;;20.20;54.20;;;;;;4978785;28;20231;-71
2022/04/17 00:22:40;;;;;;;2.10;1.90;;;20.20;54.10;;;;;;4978585;28;20208;-71
2022/04/17 00:25:07;;;;;;;2.05;1.85;;;20.20;54.00;;;;;;4994869;28;20189;-71
2022/04/17 00:27:34;;;;;;;1.73;1.63;;;20.20;54.00;;;;;;4978185;28;20221;-71
2022/04/17 00:30:00;;;;;;;2.15;1.77;;;20.20;54.00;;;;;;4995013;28;20211;-71
2022/04/17 00:32:26;;;;;;;1.92;1.67;;;20.20;53.90;;;;;;4977999;28;20201;-71
2022/04/17 00:34:52;;;;;;;1.95;1.55;;;20.20;53.80;;;;;;4994472;28;20173;-71
2022/04/17 00:37:18;;;;;;;1.88;1.70;;;20.20;53.80;;;;;;4978290;28;20239;-71
2022/04/17 00:39:43;;;;;;;1.50;1.40;;;20.20;54.00;;;;;;4962220;28;20239;-71
2022/04/17 00:42:10;;;;;;;2.15;1.40;;;20.20;53.80;;;;;;4974878;28;20209;-72
2022/04/17 00:44:37;;;;;;;1.70;1.40;;;20.20;53.80;;;;;;4975554;28;20235;-71
2022/04/17 00:47:04;;;;;;;1.33;1.23;;;20.20;53.80;;;;;;4978377;28;20195;-71
2022/04/17 00:49:31;;;;;;;2.05;1.33;;;20.20;53.90;;;;;;4978090;28;20220;-71
2022/04/17 00:51:57;;;;;;;1.58;1.48;;;20.20;54.00;;;;;;4977981;28;20251;-72
2022/04/17 00:54:25;;;;;;;1.10;1.10;;;20.20;54.00;;;;;;4994023;28;20193;-71
2022/04/17 00:56:51;;;;;;;1.55;1.45;;;20.20;54.00;;;;;;4977993;28;20185;-71
2022/04/17 00:59:18;;;;;;;1.38;1.23;;;20.20;53.80;;;;;;4978488;28;20664;-71
2022/04/17 01:01:43;;;;;;;1.50;1.40;;;20.20;53.90;;;;;;4978356;28;20200;-71
2022/04/17 01:04:09;;;;;;;1.85;1.45;;;20.20;53.90;;;;;;4993990;28;20181;-71
2022/04/17 01:06:40;;;;;;;1.52;1.23;;;20.20;54.00;;;;;;4978269;28;20188;-71
2022/04/17 01:09:06;;;;;;;1.60;1.50;;;20.20;54.00;;;;;;4994596;28;20228;-71
2022/04/17 01:11:33;;;;;;;2.13;1.75;;;20.20;53.90;;;;;;4994971;28;20207;-71
2022/04/17 01:13:59;;;;;;;1.80;1.70;;;20.20;53.80;;;;;;4969609;28;20231;-71
2022/04/17 01:16:26;;;;;;;1.98;1.70;;;20.20;53.80;;;;;;4961641;28;20691;-71
2022/04/17 01:19:11;;;;;;;2.13;2.00;;;20.20;53.70;;;;;;4978320;28;20193;-71
2022/04/17 01:21:40;;;;;;;1.95;1.77;;;20.20;53.60;;;;;;4962041;28;20180;-71
2022/04/17 01:26:58;;;;;;;1.50;1.40;;;20.20;53.80;;;;;;4994562;28;20173;-71
2022/04/17 01:29:32;;;;;;;1.50;1.40;;;20.10;53.70;;;;;;4977972;28;20212;-71
2022/04/17 01:32:07;;;;;;;3.25;1.65;;;20.10;53.70;;;;;;4961760;28;20205;-71
2022/04/17 01:34:35;;;;;;;1.50;1.40;;;20.20;53.80;;;;;;4993510;28;20684;-72
2022/04/17 01:37:01;;;;;;;1.55;1.45;;;20.10;53.70;;;;;;4977582;28;20185;-71
2022/04/17 01:39:28;;;;;;;1.50;1.40;;;20.10;53.70;;;;;;4961546;28;20194;-71
2022/04/17 01:41:55;;;;;;;1.67;1.50;;;20.20;53.70;;;;;;4977646;28;20220;-71
2022/04/17 01:44:22;;;;;;;1.98;1.85;;;20.10;53.60;;;;;;4995107;28;20189;-71
2022/04/17 01:46:49;;;;;;;2.00;1.90;;;20.10;53.50;;;;;;4978071;28;20189;-71
2022/04/17 01:49:15;;;;;;;1.42;1.33;;;20.10;53.50;;;;;;4994621;28;20314;-70
2022/04/17 01:51:44;;;;;;;1.90;1.80;;;20.10;53.50;;;;;;4995001;28;20547;-71
2022/04/17 01:54:16;;;;;;;2.00;1.80;;;20.10;53.50;;;;;;4977587;28;20670;-71
2022/04/17 01:56:44;;;;;;;1.73;1.60;;;20.10;53.40;;;;;;4977507;28;20192;-71
2022/04/17 01:59:11;;;;;;;2.75;2.00;;;20.10;53.30;;;;;;4995187;28;20212;-71
2022/04/17 02:01:38;;;;;;;1.88;1.77;;;20.10;53.30;;;;;;4964847;28;20192;-71
2022/04/17 02:04:06;;;;;;;1.67;1.58;;;20.10;53.40;;;;;;4980887;28;20200;-71
2022/04/17 02:06:32;;;;;;;1.63;1.52;;;20.10;53.40;;;;;;4997949;28;20648;-71
2022/04/17 02:08:58;;;;;;;1.70;1.60;;;20.10;53.40;;;;;;4997629;28;20224;-71
2022/04/17 02:11:26;;;;;;;1.65;1.40;;;20.10;53.50;;;;;;4974416;28;20199;-71
2022/04/17 02:13:53;;;;;;;2.00;1.42;;;20.10;53.50;;;;;;4998323;28;20284;-71
2022/04/17 02:16:20;;;;;;;1.40;1.30;;;20.10;53.50;;;;;;4998246;28;20204;-71
2022/04/17 02:18:48;;;;;;;1.60;1.50;;;20.10;53.50;;;;;;4981144;28;20192;-71
2022/04/17 02:21:17;;;;;;;1.67;1.58;;;20.10;53.50;;;;;;4981101;28;20275;-71
2022/04/17 02:23:44;;;;;;;1.50;1.40;;;20.10;53.40;;;;;;4980686;28;20212;-72
2022/04/17 02:26:13;;;;;;;1.58;1.45;;;20.10;53.50;;;;;;4998143;28;20209;-71
2022/04/17 02:28:40;;;;;;;1.95;1.83;;;20.10;53.40;;;;;;4981183;28;20209;-71
2022/04/17 02:31:08;;;;;;;2.55;1.83;;;20.10;53.30;;;;;;4997377;28;20260;-71
2022/04/17 02:33:37;;;;;;;1.90;1.70;;;20.10;53.30;;;;;;4998026;28;20296;-71
2022/04/17 02:36:04;;;;;;;1.73;1.63;;;20.10;53.20;;;;;;4965641;28;20719;-71
2022/04/17 02:38:30;;;;;;;2.72;1.90;;;20.10;53.20;;;;;;4989927;28;20199;-71
2022/04/17 02:40:56;;;;;;;2.78;2.00;;;20.10;53.30;;;;;;4980368;28;20295;-71
2022/04/17 02:43:22;;;;;;;1.83;1.73;;;20.00;53.10;;;;;;4980824;28;20251;-71
2022/04/17 02:45:52;;;;;;;1.90;1.80;;;20.10;53.10;;;;;;4997190;28;20185;-71
2022/04/17 02:48:19;;;;;;;1.70;1.60;;;20.00;53.10;;;;;;4981138;28;20189;-71
2022/04/17 02:50:47;;;;;;;1.75;1.65;;;20.00;53.10;;;;;;4981156;28;20563;-71
2022/04/17 02:53:15;;;;;;;1.60;1.50;;;20.00;53.20;;;;;;4981201;28;20223;-71
2022/04/17 02:55:41;;;;;;;1.55;1.45;;;20.00;53.10;;;;;;4998062;28;20275;-71
2022/04/17 02:58:06;;;;;;;1.88;1.23;;;20.00;53.20;;;;;;4980917;28;20272;-71
2022/04/17 03:00:32;;;;;;;1.77;1.50;;;20.00;53.20;;;;;;4964458;28;20197;-71
2022/04/17 03:05:42;;;;;;;1.27;1.17;;;20.00;53.20;;;;;;4980791;28;20566;-71
2022/04/17 03:08:17;;;;;;;1.50;1.40;;;20.00;53.20;;;;;;4981089;28;20185;-71
2022/04/17 03:10:48;;;;;;;1.88;1.77;;;20.00;53.10;;;;;;4980898;28;20312;-71
2022/04/17 03:13:15;;;;;;;1.75;1.65;;;20.00;53.20;;;;;;4997976;28;20232;-71
2022/04/17 03:15:41;;;;;;;1.92;1.83;;;20.00;53.10;;;;;;4998263;28;20208;-71
2022/04/17 03:18:08;;;;;;;1.65;1.55;;;20.00;52.90;;;;;;4996803;28;20189;-71
2022/04/17 03:20:35;;;;;;;2.35;2.10;;;20.00;52.80;;;;;;4998109;28;20212;-71
2022/04/17 03:23:01;;;;;;;1.77;1.63;;;20.00;53.00;;;;;;4980836;28;20208;-71
2022/04/17 03:25:27;;;;;;;1.73;1.63;;;20.00;52.80;;;;;;4981030;28;20181;-71
2022/04/17 03:27:53;;;;;;;1.92;1.83;;;20.00;52.70;;;;;;4997261;28;20188;-72
2022/04/17 03:30:19;;;;;;;1.60;1.50;;;20.00;52.80;;;;;;4981413;28;20231;-71
2022/04/17 03:32:51;;;;;;;1.40;1.30;;;20.00;52.90;;;;;;4997474;28;20696;-71
2022/04/17 03:35:18;;;;;;;1.48;1.38;;;20.00;53.20;;;;;;4981119;28;20177;-71
2022/04/17 03:37:45;;;;;;;1.45;1.35;;;20.00;53.00;;;;;;4965762;28;20284;-71
2022/04/17 03:40:13;;;;;;;1.60;1.50;;;20.00;52.90;;;;;;4980950;28;20563;-71
2022/04/17 03:42:40;;;;;;;1.80;1.70;;;20.00;53.00;;;;;;4980751;28;20201;-72
2022/04/17 03:45:11;;;;;;;1.50;1.40;;;20.00;53.50;;;;;;4999097;28;20549;-71
2022/04/17 03:47:38;;;;;;;1.67;1.58;;;20.00;53.00;;;;;;4966371;28;20590;-71
2022/04/17 03:50:05;;;;;;;1.70;1.60;;;20.00;53.00;;;;;;4982153;28;20220;-71
2022/04/17 03:52:47;;;;;;;1.58;1.48;;;20.00;53.00;;;;;;4982234;28;20200;-70
2022/04/17 03:55:13;;;;;;;1.50;1.40;;;20.00;52.80;;;;;;4983372;28;20181;-71
2022/04/17 03:57:39;;;;;;;1.50;1.40;;;20.00;52.80;;;;;;4983672;28;20181;-71
2022/04/17 04:00:09;;;;;;;2.05;1.85;;;20.00;52.80;;;;;;5000803;28;20656;-71
2022/04/17 04:02:38;;;;;;;1.95;1.83;;;20.00;52.70;;;;;;5041083;22;20283;-73
2022/04/17 04:05:05;;;;;;;1.85;1.75;;;19.90;52.60;;;;;;5058870;28;20217;-72
2022/04/17 04:07:31;;;;;;;2.30;2.10;;;19.90;52.50;;;;;;5035390;28;20186;-72
2022/04/17 04:09:57;;;;;;;1.80;1.70;;;19.90;52.40;;;;;;5035128;28;20262;-72
2022/04/17 04:12:22;;;;;;;1.55;1.45;;;19.90;52.40;;;;;;5049027;28;20217;-72
2022/04/17 04:14:49;;;;;;;1.70;1.60;;;19.90;53.00;;;;;;5032055;28;20628;-72
2022/04/17 04:17:15;;;;;;;1.40;1.30;;;19.90;52.60;;;;;;5032167;28;20187;-71
2022/04/17 04:19:40;;;;;;;1.60;1.50;;;19.90;52.60;;;;;;5015501;28;20218;-72
2022/04/17 04:22:06;;;;;;;1.60;1.50;;;19.90;52.60;;;;;;5031655;28;20241;-72
2022/04/17 04:24:32;;;;;;;1.60;1.50;;;19.90;52.80;;;;;;5031385;28;20195;-72
2022/04/17 04:29:42;;;;;;;1.60;1.50;;;19.90;53.10;;;;;;5031914;28;20206;-72
2022/04/17 04:32:08;;;;;;;1.70;1.60;;;19.90;52.80;;;;;;5031595;28;20172;-72
2022/04/17 04:34:34;;;;;;;1.60;1.50;;;20.00;52.80;;;;;;5064940;28;20247;-72
2022/04/17 04:37:00;;;;;;;1.40;1.40;;;19.90;52.70;;;;;;5032744;28;20263;-69
2022/04/17 04:39:28;;;;;;;1.85;1.75;;;19.90;52.60;;;;;;5031819;28;20191;-72
2022/04/17 04:41:53;;;;;;;2.22;2.03;;;19.90;52.50;;;;;;5031629;28;20187;-72
2022/04/17 04:44:19;;;;;;;1.88;1.77;;;19.90;52.60;;;;;;5031174;28;20198;-72
2022/04/17 04:46:45;;;;;;;1.90;1.80;;;19.90;52.50;;;;;;5031459;28;20325;-72
2022/04/17 04:49:29;;;;;;;1.80;1.70;;;19.90;52.50;;;;;;5031200;28;20276;-72
2022/04/17 04:51:55;;;;;;;2.03;1.67;;;19.90;52.40;;;;;;5048125;28;20202;-70
2022/04/17 04:54:21;;;;;;;1.75;1.65;;;19.90;52.40;;;;;;5014999;28;20183;-72
2022/04/17 04:56:47;;;;;;;1.60;1.50;;;19.90;52.30;;;;;;5031267;28;20183;-72
2022/04/17 04:59:13;;;;;;;1.88;1.27;;;19.90;52.40;;;;;;5031154;28;20229;-72
2022/04/17 05:01:38;;;;;;;1.58;1.48;;;19.90;52.50;;;;;;5031497;28;20187;-72
2022/04/17 05:04:04;;;;;;;1.55;1.45;;;19.90;52.50;;;;;;5030694;28;20215;-72
2022/04/17 05:06:30;;;;;;;1.60;1.50;;;19.90;52.40;;;;;;5031477;28;20191;-72
2022/04/17 05:08:56;;;;;;;1.63;1.52;;;19.90;52.60;;;;;;5031061;28;20229;-72
2022/04/17 05:11:21;;;;;;;1.45;1.35;;;19.90;52.60;;;;;;5047741;28;20187;-72
2022/04/17 05:13:47;;;;;;;1.60;1.50;;;19.90;52.50;;;;;;5039150;28;20203;-72
2022/04/17 05:16:14;;;;;;;1.50;1.40;;;19.90;52.50;;;;;;5030989;28;20191;-72
2022/04/17 05:18:40;;;;;;;1.60;1.50;;;19.90;52.50;;;;;;5031328;28;20183;-72
2022/04/17 05:21:06;;;;;;;1.48;1.38;;;19.90;52.50;;;;;;5030934;28;20183;-69
2022/04/17 05:23:33;;;;;;;1.45;1.35;;;19.90;52.50;;;;;;5030734;28;20564;-69
2022/04/17 05:26:01;;;;;;;1.30;1.30;;;19.90;52.50;;;;;;5030970;28;20215;-69
2022/04/17 05:28:30;;;;;;;1.90;1.80;;;19.90;52.50;;;;;;5030799;28;20226;-69
2022/04/17 05:31:01;;;;;;;1.60;1.50;;;19.90;52.40;;;;;;5030968;28;20190;-69
2022/04/17 05:33:27;;;;;;;2.13;2.03;;;19.90;52.40;;;;;;5030872;28;20214;-68
2022/04/17 05:35:53;;;;;;;1.60;1.50;;;19.90;52.40;;;;;;5049624;28;20180;-69
2022/04/17 05:38:22;;;;;;;1.90;1.80;;;19.90;52.40;;;;;;5034964;28;20180;-69
2022/04/17 05:40:50;;;;;;;1.73;1.63;;;19.90;52.20;;;;;;5034733;28;20249;-69
2022/04/17 05:43:18;;;;;;;1.65;1.55;;;19.90;52.20;;;;;;5034731;28;20671;-69
2022/04/17 05:45:46;;;;;;;1.48;1.38;;;19.90;52.10;;;;;;5051399;28;20185;-69
2022/04/17 05:48:13;;;;;;;1.50;1.40;;;19.90;52.20;;;;;;5034863;28;20197;-69
2022/04/17 05:50:38;;;;;;;2.15;1.50;;;19.90;52.30;;;;;;5035007;28;20195;-69
2022/04/17 05:53:05;;;;;;;1.60;1.50;;;19.90;52.30;;;;;;5034954;28;20222;-69
2022/04/17 05:55:31;;;;;;;1.70;1.60;;;19.90;52.40;;;;;;5034699;28;20183;-70
2022/04/17 05:57:58;;;;;;;1.58;1.48;;;19.90;52.40;;;;;;5017600;28;20183;-69
2022/04/17 06:00:23;;;;;;;1.92;1.60;;;19.90;52.40;;;;;;5034382;28;20163;-70
2022/04/17 06:02:49;;;;;;;1.60;1.50;;;19.90;52.30;;;;;;5032855;28;20222;-69
2022/04/17 06:05:20;;;;;;;1.45;1.35;;;19.90;52.30;;;;;;5042241;28;20175;-69
2022/04/17 06:07:46;;;;;;;1.63;1.35;;;19.90;52.30;;;;;;5034744;28;20179;-69
2022/04/17 06:10:13;;;;;;;3.15;1.50;;;20.00;52.40;;;;;;5034577;28;20195;-69
2022/04/17 06:12:40;;;;;;;2.58;1.58;;;20.00;52.40;;;;;;5033617;28;20191;-69
2022/04/17 06:15:08;;;;;;;1.98;1.30;;;20.00;52.40;;;;;;5034027;28;20179;-69
2022/04/17 06:17:40;;;;;;;2.55;1.38;;;20.00;52.40;;;;;;5034136;28;20175;-69
2022/04/17 06:20:09;;;;;;;2.13;1.88;;;20.00;52.40;;;;;;5033959;28;20179;-69
2022/04/17 06:22:36;;;;;;;3.53;1.63;;;20.00;52.20;;;;;;5067253;28;20207;-70
2022/04/17 06:25:05;;;;;;;3.03;1.90;;;20.00;52.20;;;;;;5067189;28;20219;-69
2022/04/17 06:27:47;;;;;;;2.30;1.60;;;20.00;52.20;;;;;;5067183;28;20187;-69
2022/04/17 06:30:16;;;;;;;4.47;1.80;;;20.00;52.10;;;;;;5078364;28;20751;-69
2022/04/17 06:32:43;;;;;;;2.17;1.48;;;20.00;52.20;;;;;;5067100;28;20691;-69
2022/04/17 06:35:11;;;;;;;1.40;1.30;;;20.00;52.20;;;;;;5066929;28;20237;-69
2022/04/17 06:37:51;;;;;;;2.10;1.38;;;20.00;52.30;;;;;;5084254;28;20281;-69
2022/04/17 06:40:29;;;;;;;1.55;1.42;;;20.10;52.50;;;;;;5084111;28;20190;-69
2022/04/17 06:43:01;;;;;;;1.83;1.33;;;20.10;52.40;;;;;;5076118;28;20233;-70
2022/04/17 06:45:29;;;;;;;1.55;1.45;;;20.10;52.30;;;;;;5034093;28;20191;-70
2022/04/17 06:47:55;;;;;;;1.63;1.52;;;20.10;52.40;;;;;;5033519;28;20280;-69
2022/04/17 06:50:22;;;;;;;1.40;1.30;;;20.10;52.20;;;;;;5033719;28;20248;-68
2022/04/17 06:52:49;;;;;;;1.50;1.40;;;20.20;52.40;;;;;;5033596;28;20218;-70
2022/04/17 06:55:16;;;;;;;3.08;1.50;;;20.20;52.20;;;;;;5033298;28;20179;-72
2022/04/17 06:57:49;;;;;;;1.40;1.30;;;20.20;52.20;;;;;;5033310;28;20187;-72
2022/04/17 07:00:17;;;;;;;2.75;1.50;;;20.30;52.30;;;;;;5038679;28;20185;-72
2022/04/17 07:02:44;;;;;;;2.13;1.50;;;20.30;52.20;;;;;;5036428;28;20218;-72
2022/04/17 07:05:12;;;;;;;2.08;1.40;;;20.30;52.20;;;;;;5052905;28;20178;-72
2022/04/17 07:07:38;;;;;;;1.70;1.60;;;20.30;52.20;;;;;;5053110;28;20244;-71
2022/04/17 07:10:05;;;;;;;1.48;1.38;;;20.30;51.70;;;;;;5054242;28;20202;-68
2022/04/17 07:12:31;;;;;;;2.53;1.50;;;20.40;52.00;;;;;;5040850;28;20203;-71
2022/04/17 07:15:01;;;;;;;4.22;1.95;;;20.40;51.80;;;;;;5032788;28;20198;-71
2022/04/17 07:17:40;;;;;;;2.50;1.48;;;20.40;51.60;;;;;;5033129;28;20266;-73
2022/04/17 07:20:09;;;;;;;1.90;1.75;;;20.40;52.20;;;;;;5034179;28;20673;-72
2022/04/17 07:22:37;;;;;;;5.13;1.70;;;20.50;52.20;;;;;;5033100;28;20207;-71
2022/04/17 07:25:05;;;;;;;5.38;1.73;;;20.40;52.20;;;;;;5032907;28;20278;-72
2022/04/17 07:27:47;;;;;;;5.13;2.13;;;20.50;52.40;;;;;;5033098;28;20175;-72
2022/04/17 07:30:26;;;;;;;6.28;2.33;;;20.50;52.70;;;;;;5032953;28;20203;-71
2022/04/17 07:32:58;;;;;;;5.45;1.80;;;20.50;52.40;;;;;;5033001;28;20215;-72
2022/04/17 07:35:26;;;;;;;5.63;1.65;;;20.50;52.30;;;;;;5015976;28;20632;-72
2022/04/17 07:37:54;;;;;;;6.32;1.70;;;20.60;52.20;;;;;;5019644;28;20179;-71
2022/04/17 07:40:25;;;;;;;3.88;1.70;;;20.60;52.30;;;;;;5033726;28;20254;-74
2022/04/17 07:42:58;;;;;;;2.50;1.48;;;20.60;52.20;;;;;;5032198;28;20210;-71
2022/04/17 07:45:24;;;;;;;4.22;1.77;;;20.60;51.90;;;;;;5032579;28;20180;-73
2022/04/17 07:47:51;;;;;;;7.90;1.90;;;20.60;52.30;;;;;;5032412;28;20218;-72
2022/04/17 07:50:29;;;;;;;6.05;1.38;;;20.60;52.30;;;;;;5032373;28;20218;-72
2022/04/17 07:52:56;;;;;;;2.67;1.85;;;20.70;52.40;;;;;;5032341;28;20777;-72
2022/04/17 07:55:22;;;;;;;6.15;2.00;;;20.70;52.50;;;;;;5032406;28;20183;-73
2022/04/17 07:58:24;;;;;;;5.43;1.48;;;20.70;52.60;;;;;;5031272;28;20179;-72
2022/04/17 08:00:57;;;;;;;6.75;1.90;;;20.70;52.50;;;;;;5028076;28;20207;-74
2022/04/17 08:05:55;;;;;;;7.53;2.25;;;20.70;52.90;;;;;;5033105;28;20187;-73
2022/04/17 08:08:21;;;;;;;8.45;1.75;;;20.80;52.90;;;;;;5048933;28;20202;-74
2022/04/17 08:10:47;;;;;;;4.45;1.63;;;20.80;53.00;;;;;;5015491;28;20565;-73
2022/04/17 08:13:13;;;;;;;7.03;2.13;;;20.80;53.00;;;;;;5033062;28;20202;-73
2022/04/17 08:15:39;;;;;;;6.05;1.70;;;20.80;52.90;;;;;;5032877;28;20210;-74
2022/04/17 08:18:04;;;;;;;4.78;1.80;;;20.80;53.10;;;;;;5047951;28;20222;-73
2022/04/17 08:20:30;;;;;;;9.15;2.10;;;20.80;53.30;;;;;;5048283;28;20191;-73
2022/04/17 08:22:56;;;;;;;10.52;1.80;;;20.80;53.10;;;;;;5031761;28;20290;-74
2022/04/17 08:25:22;;;;;;;5.30;1.75;;;20.80;53.20;;;;;;5031659;28;20194;-73
2022/04/17 08:27:53;;;;;;;4.88;1.50;;;20.80;53.40;;;;;;5032119;28;20182;-73
2022/04/17 08:30:26;;;;;;;4.97;1.77;;;20.90;53.50;;;;;;5031996;28;20226;-73
2022/04/17 08:32:52;;;;;;;3.28;1.88;;;20.80;53.50;;;;;;5031642;28;20198;-74
2022/04/17 08:35:19;;;;;;;7.07;1.92;;;20.90;53.50;;;;;;5032733;28;20183;-73
2022/04/17 08:37:45;;;;;;;5.00;1.50;;;20.90;53.50;;;;;;5031747;28;20182;-73
2022/04/17 08:40:13;;;;;;;5.93;2.17;;;20.90;53.60;;;;;;5031959;28;20195;-73
2022/04/17 08:42:39;;;;;;;5.63;1.80;;;20.90;53.60;;;;;;5015060;28;20198;-74
2022/04/17 08:45:09;;;;;;;6.22;2.30;;;20.90;53.40;;;;;;5032495;28;20198;-73
2022/04/17 08:47:38;;;;;;;4.18;2.05;;;20.90;53.60;;;;;;5032643;28;20195;-74
2022/04/17 08:50:24;;;;;;;5.43;1.83;;;20.90;53.30;;;;;;5032616;28;20203;-73
2022/04/17 08:52:52;;;;;;;6.70;2.10;;;20.90;53.00;;;;;;5032942;28;20206;-74
2022/04/17 08:55:19;;;;;;;5.82;2.22;;;20.90;52.90;;;;;;5032427;28;20186;-73
2022/04/17 08:57:45;;;;;;;7.22;2.55;;;20.90;53.40;;;;;;5014848;28;20187;-72
2022/04/17 09:00:16;;;;;;;5.75;1.70;;;20.90;53.10;;;;;;5014941;28;20190;-73
2022/04/17 09:02:43;;;;;;;7.85;1.95;;;20.90;53.30;;;;;;5031292;28;20702;-74
2022/04/17 09:05:12;;;;;;;5.45;2.00;;;20.90;53.40;;;;;;5031027;28;20186;-73
2022/04/17 09:07:50;;;;;;;5.82;2.30;;;20.90;53.50;;;;;;5015172;28;20273;-74
2022/04/17 09:10:25;;;;;;;6.45;1.63;;;20.90;53.60;;;;;;5014438;28;20296;-73
2022/04/17 09:12:55;;;;;;;5.30;2.00;;;20.90;53.60;;;;;;5030902;28;20252;-73
2022/04/17 09:15:46;;;;;;;7.63;1.92;;;20.90;53.90;;;;;;5030884;28;20206;-74
2022/04/17 09:18:14;;;;;;;4.07;1.83;;;20.90;53.90;;;;;;5031429;28;20172;-74
2022/04/17 09:20:46;;;;;;;4.68;1.85;;;20.90;53.60;;;;;;5031487;28;20183;-73
2022/04/17 09:23:12;;;;;;;4.15;2.00;;;21.00;53.60;;;;;;5014889;28;20297;-73
2022/04/17 09:25:38;;;;;;;5.90;2.15;;;21.00;53.80;;;;;;5030846;28;20226;-73
2022/04/17 09:28:08;;;;;;;3.17;1.42;;;20.90;53.90;;;;;;5031431;28;20187;-73
2022/04/17 09:30:39;;;;;;;5.28;1.60;;;20.90;53.80;;;;;;5030929;28;20314;-74
2022/04/17 09:33:12;;;;;;;8.38;2.13;;;21.00;54.00;;;;;;5031219;28;20203;-73
2022/04/17 09:35:39;;;;;;;7.03;1.88;;;21.00;54.10;;;;;;5030804;28;20182;-73
2022/04/17 09:38:09;;;;;;;3.53;1.63;;;21.00;54.30;;;;;;5031045;28;20210;-73
2022/04/17 09:40:37;;;;;;;4.45;1.83;;;21.00;54.20;;;;;;5030911;28;20218;-72
2022/04/17 09:43:15;;;;;;;6.15;1.77;;;21.00;54.10;;;;;;5030996;28;20207;-72
2022/04/17 09:46:07;;;;;;;5.63;1.70;;;21.00;54.20;;;;;;5030569;28;20625;-73
2022/04/17 09:48:43;;;;;;;6.68;1.60;;;21.00;54.30;;;;;;5030941;28;20207;-72
2022/04/17 09:51:28;;;;;;;7.47;2.40;;;21.00;54.10;;;;;;5030898;28;20561;-72
2022/04/17 09:54:06;;;;;;;5.72;2.10;;;21.00;54.20;;;;;;5030658;28;20214;-73
2022/04/17 09:56:40;;;;;;;3.45;1.95;;;21.00;54.00;;;;;;5030664;28;20187;-72
2022/04/17 09:59:21;;;;;;;5.70;2.33;;;21.00;54.00;;;;;;5031056;28;20179;-72
2022/04/17 10:01:57;;;;;;;2.92;2.10;;;21.00;54.40;;;;;;5030643;28;20705;-72
2022/04/17 10:04:27;;;;;;;7.55;2.45;;;21.00;54.20;;;;;;5051832;22;20227;-70
2022/04/17 10:06:57;;;;;;;5.50;2.47;;;21.00;54.30;;;;;;5008827;28;20189;-70
2022/04/17 10:09:23;;;;;;;8.27;2.63;;;21.00;54.60;;;;;;5011631;28;20216;-70
2022/04/17 10:11:51;;;;;;;6.18;2.33;;;21.00;54.40;;;;;;5012427;28;20283;-71
2022/04/17 10:14:18;;;;;;;7.22;3.05;;;21.00;54.20;;;;;;5008116;28;20247;-70
2022/04/17 10:16:48;;;;;;;5.20;2.45;;;21.00;54.80;;;;;;4991582;28;20193;-70
2022/04/17 10:19:19;;;;;;;6.78;2.70;;;21.00;54.50;;;;;;4975922;28;20189;-70
2022/04/17 10:21:50;;;;;;;9.43;2.83;;;21.00;54.40;;;;;;5009673;28;20188;-70
2022/04/17 10:24:18;;;;;;;4.05;2.55;;;21.00;54.20;;;;;;5012276;28;20267;-71
2022/04/17 10:26:54;;;;;;;6.78;2.70;;;21.00;54.40;;;;;;4995185;28;20228;-71
2022/04/17 10:29:37;;;;;;;3.15;2.35;;;21.00;54.10;;;;;;5011440;28;20216;-70
2022/04/17 10:32:35;;;;;;;3.20;2.20;;;21.00;54.10;;;;;;4978607;28;20185;-71
2022/04/17 10:35:24;;;;;;;4.50;2.10;;;21.00;54.40;;;;;;4995135;28;20223;-70
2022/04/17 10:38:31;;;;;;;4.38;2.35;;;21.00;54.60;;;;;;4995393;28;20189;-70
2022/04/17 10:41:07;;;;;;;5.30;2.55;;;21.00;54.20;;;;;;4966950;28;20197;-70
2022/04/17 10:43:56;;;;;;;3.63;2.22;;;21.00;54.20;;;;;;4991502;28;20250;-70
2022/04/17 10:46:22;;;;;;;6.22;2.10;;;21.00;54.40;;;;;;4993851;28;20210;-69
2022/04/17 10:49:04;;;;;;;6.88;2.13;;;21.00;54.40;;;;;;4994310;28;20217;-70
2022/04/17 10:51:35;;;;;;;1.98;1.80;;;21.00;54.70;;;;;;4993554;28;20187;-70
2022/04/17 10:54:06;;;;;;;5.65;2.10;;;21.00;54.40;;;;;;4993198;28;20709;-69
2022/04/17 10:56:38;;;;;;;3.45;1.90;;;21.00;54.30;;;;;;4993544;28;20221;-69
2022/04/17 10:59:16;;;;;;;3.90;2.50;;;21.00;54.00;;;;;;4992552;28;20293;-70
2022/04/17 11:01:45;;;;;;;3.65;1.95;;;21.00;54.20;;;;;;4993069;28;20271;-70
2022/04/17 11:04:29;;;;;;;2.50;1.73;;;21.00;54.40;;;;;;4992455;28;20312;-71
2022/04/17 11:07:04;;;;;;;2.95;1.90;;;21.00;54.20;;;;;;4977288;28;20174;-70
2022/04/17 11:09:31;;;;;;;4.00;1.83;;;21.00;54.40;;;;;;4983756;28;20212;-70
2022/04/17 11:12:19;;;;;;;3.92;1.83;;;21.00;54.60;;;;;;5012481;28;20260;-70
2022/04/17 11:15:03;;;;;;;4.82;1.83;;;21.00;54.30;;;;;;5011832;28;20213;-70
2022/04/17 11:17:30;;;;;;;3.10;1.67;;;21.00;54.30;;;;;;4995358;28;20207;-70
2022/04/17 11:19:59;;;;;;;3.67;1.90;;;21.10;54.20;;;;;;5012666;28;20180;-70
2022/04/17 11:22:34;;;;;;;5.55;1.95;;;21.10;54.50;;;;;;4991202;28;20181;-70
2022/04/17 11:25:02;;;;;;;5.25;1.85;;;21.00;54.30;;;;;;4995469;28;20204;-70
2022/04/17 11:27:52;;;;;;;7.53;1.80;;;21.00;54.50;;;;;;4991240;28;20186;-70
2022/04/17 11:30:17;;;;;;;8.35;2.20;;;21.00;54.30;;;;;;4994995;28;20596;-70
2022/04/17 11:32:43;;;;;;;8.27;2.08;;;21.00;54.40;;;;;;4994649;28;20660;-70
2022/04/17 11:35:15;;;;;;;5.28;2.17;;;21.00;54.40;;;;;;4994684;28;20205;-70
2022/04/17 11:38:03;;;;;;;5.10;2.30;;;21.00;54.60;;;;;;5011507;28;20189;-70
2022/04/17 11:40:35;;;;;;;4.20;2.08;;;21.00;54.50;;;;;;5011217;28;20180;-70
2022/04/17 11:43:16;;;;;;;4.75;1.92;;;21.00;54.60;;;;;;5003513;28;20180;-71
2022/04/17 11:45:44;;;;;;;7.75;1.92;;;21.00;54.30;;;;;;5010815;28;20754;-70
2022/04/17 11:48:17;;;;;;;6.43;2.00;;;21.00;54.60;;;;;;5011508;28;20253;-71
2022/04/17 11:50:43;;;;;;;3.92;1.67;;;21.00;54.40;;;;;;5000918;28;20208;-70
2022/04/17 11:53:13;;;;;;;4.40;1.75;;;21.00;54.20;;;;;;5012460;28;20196;-70
2022/04/17 11:55:49;;;;;;;4.47;1.95;;;21.00;54.50;;;;;;5011475;28;20259;-70
2022/04/17 11:58:27;;;;;;;4.57;2.05;;;21.00;54.40;;;;;;4995569;28;20723;-70
2022/04/17 12:01:03;;;;;;;5.63;1.75;;;21.00;54.40;;;;;;5010598;28;20279;-70
2022/04/17 12:03:46;;;;;;;4.00;1.70;;;21.00;54.50;;;;;;5010847;28;20199;-70
2022/04/17 12:06:12;;;;;;;3.28;1.70;;;21.00;54.70;;;;;;4976568;28;20193;-70
2022/04/17 12:08:40;;;;;;;4.32;1.55;;;21.00;54.40;;;;;;4990919;28;20620;-70
2022/04/17 12:11:08;;;;;;;4.72;1.60;;;21.00;54.40;;;;;;4994403;28;20184;-71
2022/04/17 12:13:34;;;;;;;2.08;1.42;;;21.00;54.30;;;;;;5010534;28;20211;-70
2022/04/17 12:16:03;;;;;;;3.72;1.70;;;21.10;54.40;;;;;;4995858;28;20235;-71
2022/04/17 12:18:31;;;;;;;3.65;1.50;;;21.00;54.70;;;;;;4994597;28;20192;-70
2022/04/17 12:21:02;;;;;;;3.22;1.52;;;21.00;54.70;;;;;;4978764;28;20188;-70
2022/04/17 12:23:29;;;;;;;3.25;1.70;;;21.00;54.40;;;;;;5011949;28;20169;-70
2022/04/17 12:25:58;;;;;;;2.75;1.50;;;21.00;54.30;;;;;;5010870;28;20196;-69
2022/04/17 12:28:24;;;;;;;3.00;1.50;;;21.00;55.20;;;;;;4994690;28;20192;-69
2022/04/17 12:30:50;;;;;;;3.25;1.60;;;21.00;54.70;;;;;;4996966;28;20254;-70
2022/04/17 12:33:26;;;;;;;3.00;1.40;;;21.00;54.80;;;;;;5014810;28;20718;-70
2022/04/17 12:36:12;;;;;;;4.32;1.70;;;21.00;54.80;;;;;;4982934;28;20215;-70
2022/04/17 12:38:41;;;;;;;5.07;1.83;;;21.00;55.00;;;;;;5010728;28;20192;-70
2022/04/17 12:41:20;;;;;;;2.80;1.48;;;21.00;54.90;;;;;;4977613;28;20184;-70
2022/04/17 12:43:50;;;;;;;3.80;1.50;;;21.00;54.60;;;;;;4984610;28;20184;-70
2022/04/17 12:46:28;;;;;;;6.13;2.00;;;21.10;54.70;;;;;;5010733;28;20220;-70
2022/04/17 12:49:08;;;;;;;6.85;1.90;;;21.10;54.80;;;;;;5010692;28;20205;-70
2022/04/17 12:51:36;;;;;;;6.03;1.95;;;21.00;54.40;;;;;;5011160;28;20173;-70
2022/04/17 12:54:05;;;;;;;8.80;1.80;;;21.10;54.80;;;;;;5010843;28;20180;-69
2022/04/17 12:56:31;;;;;;;2.30;1.73;;;21.10;54.50;;;;;;5010891;28;20216;-69
2022/04/17 12:58:59;;;;;;;2.40;1.33;;;21.10;54.50;;;;;;5010663;28;20200;-69
2022/04/17 13:01:27;;;;;;;8.00;1.90;;;21.00;54.70;;;;;;4994413;28;20283;-70
2022/04/17 13:04:16;;;;;;;6.20;1.70;;;21.10;54.70;;;;;;5011425;28;20615;-69
2022/04/17 13:06:42;;;;;;;5.20;1.58;;;21.00;54.60;;;;;;5012276;28;20189;-69
2022/04/17 13:09:21;;;;;;;6.20;1.83;;;21.00;54.50;;;;;;4995319;28;20235;-69
2022/04/17 13:11:53;;;;;;;6.30;1.85;;;21.00;54.50;;;;;;5011079;28;20268;-69